createdAt,value
2023-04-21T00:00:17.463Z,90.53
2023-04-21T00:01:17.538Z,90.64
2023-04-21T00:02:17.418Z,90.99
2023-04-21T00:03:17.599Z,90.99
2023-04-21T00:04:17.447Z,91.46
2023-04-21T00:05:17.428Z,91.19
2023-04-21T00:06:17.259Z,91.70
2023-04-21T00:07:17.304Z,91.09
2023-04-21T00:08:17.201Z,91.50
2023-04-21T00:09:17.366Z,91.39
2023-04-21T00:10:17.137Z,91.50
2023-04-21T00:11:17.116Z,91.29
2023-04-21T00:12:17.074Z,91.50
2023-04-21T00:13:17.106Z,91.70
2023-04-21T00:14:17.000Z,91.50
2023-04-21T00:15:16.978Z,91.44
2023-04-21T00:16:17.010Z,91.50
2023-04-21T00:17:16.902Z,91.64
2023-04-21T00:18:16.864Z,92.56
2023-04-21T00:19:17.127Z,92.05
2023-04-21T00:20:16.807Z,91.54
2023-04-21T00:21:16.773Z,91.64
2023-04-21T00:22:16.732Z,91.29
2023-04-21T00:23:16.697Z,91.85
2023-04-21T00:24:16.677Z,91.19
2023-04-21T00:25:16.706Z,91.54
2023-04-21T00:26:16.608Z,91.44
2023-04-21T00:27:16.563Z,90.99
2023-04-21T00:28:16.527Z,90.99
2023-04-21T00:29:16.772Z,91.50
2023-04-21T00:30:16.466Z,91.09
2023-04-21T00:31:16.522Z,91.29
2023-04-21T00:32:16.417Z,90.12
2023-04-21T00:33:16.373Z,90.23
2023-04-21T00:34:16.334Z,90.02
2023-04-21T00:35:16.295Z,89.92
2023-04-21T00:36:16.339Z,89.61
2023-04-21T00:37:16.232Z,89.51
2023-04-21T00:38:16.190Z,90.02
2023-04-21T00:39:16.177Z,89.58
2023-04-21T00:40:16.146Z,88.85
2023-04-21T00:41:16.152Z,88.65
2023-04-21T00:42:16.063Z,88.85
2023-04-21T00:43:16.042Z,89.06
2023-04-21T00:44:15.999Z,89.11
2023-04-21T00:45:15.964Z,88.90
2023-04-21T00:46:15.963Z,89.20
2023-04-21T00:47:15.950Z,88.76
2023-04-21T00:48:15.871Z,88.65
2023-04-21T00:49:15.912Z,88.96
2023-04-21T00:50:15.794Z,88.04
2023-04-21T00:51:15.768Z,88.14
2023-04-21T00:52:15.792Z,87.94
2023-04-21T00:53:15.691Z,88.24
2023-04-21T00:54:15.660Z,88.04
2023-04-21T00:55:15.681Z,87.79
2023-04-21T00:56:15.593Z,87.59
2023-04-21T00:57:15.572Z,87.79
2023-04-21T00:58:15.583Z,87.79
2023-04-21T00:59:15.501Z,87.35
2023-04-21T01:00:15.481Z,86.98
2023-04-21T01:01:15.442Z,86.88
2023-04-21T01:02:15.432Z,86.73
2023-04-21T01:03:15.588Z,86.94
2023-04-21T01:04:15.350Z,86.98
2023-04-21T01:05:15.314Z,86.83
2023-04-21T01:06:15.314Z,87.29
2023-04-21T01:07:15.234Z,86.98
2023-04-21T01:08:15.252Z,87.38
2023-04-21T01:09:15.169Z,87.18
2023-04-21T01:10:15.136Z,86.88
2023-04-21T01:11:15.092Z,86.98
2023-04-21T01:12:15.056Z,87.29
2023-04-21T01:13:15.037Z,87.29
2023-04-21T01:14:15.072Z,87.29
2023-04-21T01:15:14.968Z,87.38
2023-04-21T01:16:14.950Z,87.18
2023-04-21T01:17:14.905Z,86.77
2023-04-21T01:18:14.958Z,86.47
2023-04-21T01:19:14.838Z,86.16
2023-04-21T01:20:14.866Z,86.63
2023-04-21T01:21:14.757Z,86.47
2023-04-21T01:22:14.736Z,86.57
2023-04-21T01:23:14.696Z,86.67
2023-04-21T01:24:14.662Z,86.26
2023-04-21T01:25:14.693Z,86.77
2023-04-21T01:26:14.623Z,86.77
2023-04-21T01:27:14.576Z,86.98
2023-04-21T01:28:14.537Z,86.88
2023-04-21T01:29:14.500Z,86.26
2023-04-21T01:30:14.461Z,86.47
2023-04-21T01:31:14.497Z,86.51
2023-04-21T01:32:14.415Z,86.61
2023-04-21T01:33:14.405Z,86.47
2023-04-21T01:34:14.332Z,86.47
2023-04-21T01:35:14.290Z,86.57
2023-04-21T01:36:14.276Z,86.71
2023-04-21T01:37:14.300Z,86.61
2023-04-21T01:38:14.207Z,86.67
2023-04-21T01:39:14.193Z,86.36
2023-04-21T01:40:14.171Z,86.47
2023-04-21T01:41:14.089Z,86.71
2023-04-21T01:42:14.079Z,86.51
2023-04-21T01:43:14.084Z,86.61
2023-04-21T01:44:13.998Z,86.20
2023-04-21T01:45:13.984Z,86.61
2023-04-21T01:46:13.976Z,86.26
2023-04-21T01:47:13.898Z,85.96
2023-04-21T01:48:14.000Z,86.16
2023-04-21T01:49:13.836Z,86.16
2023-04-21T01:50:13.812Z,86.41
2023-04-21T01:51:13.756Z,86.41
2023-04-21T01:52:13.729Z,86.20
2023-04-21T01:53:13.748Z,86.51
2023-04-21T01:54:13.670Z,86.71
2023-04-21T01:55:13.647Z,86.82
2023-04-21T01:56:13.605Z,86.85
2023-04-21T01:57:13.655Z,86.30
2023-04-21T01:58:13.523Z,86.82
2023-04-21T01:59:13.552Z,86.61
2023-04-21T02:00:13.467Z,86.51
2023-04-21T02:01:13.446Z,86.41
2023-04-21T02:02:13.499Z,86.61
2023-04-21T02:03:13.475Z,86.20
2023-04-21T02:04:13.415Z,86.41
2023-04-21T02:05:13.357Z,86.30
2023-04-21T02:06:13.276Z,86.14
2023-04-21T02:07:13.301Z,86.20
2023-04-21T02:08:13.207Z,86.10
2023-04-21T02:09:13.156Z,86.30
2023-04-21T02:10:13.151Z,86.44
2023-04-21T02:11:13.160Z,86.24
2023-04-21T02:12:13.069Z,86.04
2023-04-21T02:13:13.035Z,86.41
2023-04-21T02:14:12.998Z,86.24
2023-04-21T02:15:12.966Z,86.76
2023-04-21T02:16:14.265Z,86.65
2023-04-21T02:17:12.963Z,86.65
2023-04-21T02:18:12.950Z,86.96
2023-04-21T02:19:12.836Z,87.06
2023-04-21T02:20:12.797Z,86.85
2023-04-21T02:21:12.763Z,87.30
2023-04-21T02:22:12.741Z,87.00
2023-04-21T02:23:12.764Z,87.20
2023-04-21T02:24:12.658Z,87.41
2023-04-21T02:25:12.636Z,86.29
2023-04-21T02:26:12.585Z,86.79
2023-04-21T02:27:12.550Z,86.90
2023-04-21T02:28:12.534Z,87.20
2023-04-21T02:29:12.547Z,87.20
2023-04-21T02:30:12.464Z,87.20
2023-04-21T02:31:12.471Z,87.00
2023-04-21T02:32:24.901Z,87.20
2023-04-21T02:33:12.399Z,87.00
2023-04-21T02:34:12.318Z,86.79
2023-04-21T02:35:12.355Z,87.20
2023-04-21T02:36:12.257Z,87.41
2023-04-21T02:37:12.237Z,87.14
2023-04-21T02:38:12.187Z,87.35
2023-04-21T02:39:12.165Z,87.24
2023-04-21T02:40:12.121Z,88.00
2023-04-21T02:41:12.128Z,87.29
2023-04-21T02:42:12.046Z,87.79
2023-04-21T02:43:12.022Z,87.90
2023-04-21T02:44:12.018Z,87.70
2023-04-21T02:45:11.959Z,87.90
2023-04-21T02:46:12.000Z,87.49
2023-04-21T02:47:11.888Z,87.59
2023-04-21T02:48:12.063Z,86.98
2023-04-21T02:49:11.817Z,87.49
2023-04-21T02:50:11.778Z,87.70
2023-04-21T02:51:11.763Z,87.04
2023-04-21T02:52:11.714Z,87.04
2023-04-21T02:53:11.743Z,86.63
2023-04-21T02:54:11.652Z,86.73
2023-04-21T02:55:11.659Z,86.73
2023-04-21T02:56:11.572Z,87.08
2023-04-21T02:57:11.562Z,87.08
2023-04-21T02:58:11.503Z,86.98
2023-04-21T02:59:11.529Z,87.08
2023-04-21T03:00:11.434Z,86.98
2023-04-21T03:01:11.428Z,86.77
2023-04-21T03:02:11.494Z,86.26
2023-04-21T03:03:11.399Z,86.63
2023-04-21T03:04:11.437Z,86.57
2023-04-21T03:05:11.333Z,86.88
2023-04-21T03:06:11.248Z,86.67
2023-04-21T03:07:11.204Z,86.67
2023-04-21T03:08:11.183Z,86.98
2023-04-21T03:09:11.221Z,87.08
2023-04-21T03:10:11.097Z,86.67
2023-04-21T03:11:11.084Z,87.08
2023-04-21T03:12:11.035Z,86.57
2023-04-21T03:13:11.009Z,86.57
2023-04-21T03:14:10.961Z,86.67
2023-04-21T03:15:11.005Z,86.71
2023-04-21T03:16:10.936Z,87.12
2023-04-21T03:17:10.874Z,87.12
2023-04-21T03:18:10.878Z,87.32
2023-04-21T03:19:10.799Z,87.43
2023-04-21T03:20:10.775Z,87.73
2023-04-21T03:21:10.815Z,87.53
2023-04-21T03:22:10.711Z,87.43
2023-04-21T03:23:10.664Z,87.26
2023-04-21T03:24:10.624Z,87.73
2023-04-21T03:25:10.602Z,87.22
2023-04-21T03:26:10.568Z,87.26
2023-04-21T03:27:11.138Z,87.57
2023-04-21T03:28:10.504Z,87.57
2023-04-21T03:29:10.456Z,87.32
2023-04-21T03:30:10.936Z,87.12
2023-04-21T03:31:10.403Z,87.32
2023-04-21T03:32:10.371Z,87.43
2023-04-21T03:33:10.455Z,87.47
2023-04-21T03:34:10.297Z,87.57
2023-04-21T03:35:10.253Z,87.37
2023-04-21T03:36:10.227Z,87.22
2023-04-21T03:37:10.191Z,87.63
2023-04-21T03:38:10.181Z,87.26
2023-04-21T03:39:19.716Z,87.57
2023-04-21T03:40:10.129Z,87.47
2023-04-21T03:41:10.047Z,87.47
2023-04-21T03:42:10.023Z,87.88
2023-04-21T03:43:10.003Z,87.57
2023-04-21T03:44:09.963Z,87.67
2023-04-21T03:45:10.010Z,87.67
2023-04-21T03:46:09.906Z,87.57
2023-04-21T03:47:09.850Z,87.26
2023-04-21T03:48:09.918Z,87.26
2023-04-21T03:49:09.780Z,87.26
2023-04-21T03:50:09.742Z,87.57
2023-04-21T03:51:09.772Z,87.37
2023-04-21T03:52:09.680Z,87.37
2023-04-21T03:53:09.642Z,87.16
2023-04-21T03:54:09.608Z,87.57
2023-04-21T03:55:09.577Z,87.26
2023-04-21T03:56:09.538Z,87.37
2023-04-21T03:57:09.563Z,87.37
2023-04-21T03:58:09.502Z,87.16
2023-04-21T03:59:09.442Z,87.16
2023-04-21T04:00:09.405Z,87.16
2023-04-21T04:01:09.374Z,87.37
2023-04-21T04:02:09.361Z,87.16
2023-04-21T04:03:09.435Z,87.37
2023-04-21T04:04:09.553Z,86.85
2023-04-21T04:05:09.277Z,87.16
2023-04-21T04:06:09.200Z,87.16
2023-04-21T04:07:09.162Z,87.16
2023-04-21T04:08:09.120Z,87.06
2023-04-21T04:09:09.149Z,87.47
2023-04-21T04:10:09.125Z,86.85
2023-04-21T04:11:09.025Z,86.75
2023-04-21T04:12:10.598Z,87.06
2023-04-21T04:13:08.956Z,86.75
2023-04-21T04:14:08.924Z,87.16
2023-04-21T04:15:08.947Z,87.06
2023-04-21T04:16:08.940Z,86.71
2023-04-21T04:17:08.821Z,86.75
2023-04-21T04:18:08.814Z,86.85
2023-04-21T04:19:08.769Z,86.65
2023-04-21T04:20:08.766Z,86.44
2023-04-21T04:21:08.698Z,85.69
2023-04-21T04:22:08.647Z,86.20
2023-04-21T04:23:08.623Z,85.99
2023-04-21T04:24:08.601Z,85.99
2023-04-21T04:25:08.554Z,85.38
2023-04-21T04:26:08.576Z,84.93
2023-04-21T04:27:08.533Z,84.83
2023-04-21T04:28:08.447Z,84.38
2023-04-21T04:29:08.508Z,83.73
2023-04-21T04:30:08.380Z,83.11
2023-04-21T04:31:08.370Z,83.11
2023-04-21T04:32:08.374Z,83.01
2023-04-21T04:33:08.294Z,82.40
2023-04-21T04:34:08.234Z,82.91
2023-04-21T04:35:08.230Z,82.91
2023-04-21T04:36:08.178Z,83.05
2023-04-21T04:37:08.168Z,83.01
2023-04-21T04:38:08.170Z,83.15
2023-04-21T04:39:09.460Z,83.32
2023-04-21T04:40:08.042Z,83.25
2023-04-21T04:41:08.000Z,83.32
2023-04-21T04:42:07.976Z,83.01
2023-04-21T04:43:07.925Z,82.77
2023-04-21T04:44:07.970Z,81.71
2023-04-21T04:45:07.917Z,80.75
2023-04-21T04:46:07.899Z,80.34
2023-04-21T04:47:07.895Z,79.39
2023-04-21T04:48:07.776Z,78.88
2023-04-21T04:49:07.744Z,78.84
2023-04-21T04:50:07.753Z,78.94
2023-04-21T04:51:07.703Z,78.43
2023-04-21T04:52:07.630Z,78.33
2023-04-21T04:53:07.589Z,78.88
2023-04-21T04:54:07.569Z,79.77
2023-04-21T04:55:07.584Z,81.54
2023-04-21T04:56:07.491Z,81.65
2023-04-21T04:57:07.477Z,82.29
2023-04-21T04:58:07.436Z,82.81
2023-04-21T04:59:07.402Z,82.50
2023-04-21T05:00:07.369Z,83.15
2023-04-21T05:01:07.404Z,83.15
2023-04-21T05:02:07.378Z,83.46
2023-04-21T05:03:07.408Z,83.15
2023-04-21T05:04:07.379Z,82.84
2023-04-21T05:05:07.328Z,83.46
2023-04-21T05:06:07.165Z,82.84
2023-04-21T05:07:07.189Z,83.05
2023-04-21T05:08:07.096Z,82.64
2023-04-21T05:09:07.081Z,82.75
2023-04-21T05:10:07.033Z,82.40
2023-04-21T05:11:07.041Z,82.60
2023-04-21T05:12:06.964Z,82.70
2023-04-21T05:13:06.942Z,82.50
2023-04-21T05:14:06.901Z,82.70
2023-04-21T05:15:06.860Z,83.22
2023-04-21T05:16:06.875Z,82.50
2023-04-21T05:17:06.831Z,82.60
2023-04-21T05:18:06.800Z,82.29
2023-04-21T05:19:06.736Z,82.70
2023-04-21T05:20:06.704Z,82.29
2023-04-21T05:21:06.655Z,82.26
2023-04-21T05:22:06.703Z,81.65
2023-04-21T05:23:06.599Z,81.54
2023-04-21T05:24:06.568Z,81.54
2023-04-21T05:25:06.565Z,81.44
2023-04-21T05:26:06.507Z,81.65
2023-04-21T05:27:06.466Z,81.85
2023-04-21T05:28:06.481Z,81.74
2023-04-21T05:29:06.387Z,80.93
2023-04-21T05:30:06.362Z,81.24
2023-04-21T05:31:06.354Z,80.93
2023-04-21T05:32:06.325Z,80.83
2023-04-21T05:33:06.329Z,81.03
2023-04-21T05:34:06.316Z,80.79
2023-04-21T05:35:06.201Z,81.20
2023-04-21T05:36:06.173Z,80.89
2023-04-21T05:37:06.135Z,80.48
2023-04-21T05:38:06.099Z,80.69
2023-04-21T05:39:06.063Z,80.18
2023-04-21T05:40:06.116Z,80.65
2023-04-21T05:41:06.006Z,80.28
2023-04-21T05:42:05.961Z,79.63
2023-04-21T05:43:05.949Z,80.14
2023-04-21T05:44:05.923Z,79.83
2023-04-21T05:45:05.883Z,79.43
2023-04-21T05:46:05.969Z,78.50
2023-04-21T05:47:05.792Z,78.81
2023-04-21T05:48:05.812Z,78.57
2023-04-21T05:49:05.757Z,78.77
2023-04-21T05:50:05.714Z,78.06
2023-04-21T05:51:05.660Z,78.02
2023-04-21T05:52:05.692Z,77.75
2023-04-21T05:53:05.602Z,78.02
2023-04-21T05:54:05.579Z,77.31
2023-04-21T05:55:05.526Z,77.55
2023-04-21T05:56:05.510Z,77.31
2023-04-21T05:57:05.456Z,77.82
2023-04-21T05:58:05.547Z,76.39
2023-04-21T05:59:05.412Z,77.11
2023-04-21T06:00:05.360Z,77.51
2023-04-21T06:01:05.337Z,76.66
2023-04-21T06:02:05.341Z,76.59
2023-04-21T06:03:05.408Z,76.15
2023-04-21T06:04:05.511Z,76.76
2023-04-21T06:05:05.313Z,76.15
2023-04-21T06:06:05.161Z,76.35
2023-04-21T06:07:05.146Z,76.15
2023-04-21T06:08:05.102Z,76.66
2023-04-21T06:09:05.065Z,75.81
2023-04-21T06:10:05.104Z,75.81
2023-04-21T06:11:04.990Z,75.30
2023-04-21T06:12:04.963Z,75.81
2023-04-21T06:13:04.929Z,75.81
2023-04-21T06:14:04.894Z,75.71
2023-04-21T06:15:04.869Z,75.16
2023-04-21T06:16:04.906Z,74.69
2023-04-21T06:17:04.810Z,74.69
2023-04-21T06:18:04.823Z,74.45
2023-04-21T06:19:04.735Z,75.78
2023-04-21T06:20:04.705Z,74.65
2023-04-21T06:21:04.680Z,74.76
2023-04-21T06:22:04.708Z,74.45
2023-04-21T06:23:04.606Z,73.94
2023-04-21T06:24:04.593Z,74.11
2023-04-21T06:25:04.541Z,74.65
2023-04-21T06:26:04.518Z,74.45
2023-04-21T06:27:04.483Z,74.32
2023-04-21T06:28:04.505Z,74.45
2023-04-21T06:29:04.413Z,73.91
2023-04-21T06:30:04.386Z,74.52
2023-04-21T06:31:06.956Z,73.71
2023-04-21T06:32:04.446Z,73.60
2023-04-21T06:33:04.425Z,74.01
2023-04-21T06:34:04.253Z,73.80
2023-04-21T06:35:04.220Z,74.11
2023-04-21T06:36:04.190Z,73.91
2023-04-21T06:37:04.165Z,73.91
2023-04-21T06:38:05.169Z,73.26
2023-04-21T06:39:04.088Z,72.45
2023-04-21T06:40:04.057Z,73.26
2023-04-21T06:41:04.019Z,71.94
2023-04-21T06:42:03.991Z,72.75
2023-04-21T06:43:04.008Z,72.55
2023-04-21T06:44:03.984Z,72.34
2023-04-21T06:45:03.892Z,72.25
2023-04-21T06:46:03.864Z,72.55
2023-04-21T06:47:03.869Z,72.34
2023-04-21T06:48:03.852Z,72.31
2023-04-21T06:49:03.766Z,72.41
2023-04-21T06:50:03.789Z,72.21
2023-04-21T06:51:03.700Z,72.31
2023-04-21T06:52:03.672Z,71.47
2023-04-21T06:53:03.637Z,70.89
2023-04-21T06:54:03.847Z,71.09
2023-04-21T06:55:03.609Z,71.06
2023-04-21T06:56:03.533Z,71.87
2023-04-21T06:57:03.503Z,70.35
2023-04-21T06:58:03.482Z,70.55
2023-04-21T06:59:03.444Z,70.45
2023-04-21T07:00:03.405Z,70.96
2023-04-21T07:01:03.479Z,70.35
2023-04-21T07:02:03.382Z,70.55
2023-04-21T07:03:03.377Z,70.75
2023-04-21T07:04:03.386Z,70.62
2023-04-21T07:05:03.255Z,70.21
2023-04-21T07:06:03.273Z,70.42
2023-04-21T07:07:03.454Z,70.21
2023-04-21T07:08:03.147Z,69.40
2023-04-21T07:09:03.145Z,69.91
2023-04-21T07:10:03.088Z,70.21
2023-04-21T07:11:03.076Z,70.31
2023-04-21T07:12:03.111Z,70.08
2023-04-21T07:13:03.084Z,69.87
2023-04-21T07:14:02.967Z,69.98
2023-04-21T07:15:02.940Z,69.98
2023-04-21T07:16:02.909Z,69.95
2023-04-21T07:17:02.922Z,69.26
2023-04-21T07:18:02.919Z,69.34
2023-04-21T07:19:02.803Z,69.23
2023-04-21T07:20:02.788Z,68.62
2023-04-21T07:21:02.741Z,69.34
2023-04-21T07:22:02.705Z,68.83
2023-04-21T07:23:02.695Z,67.81
2023-04-21T07:24:02.702Z,68.01
2023-04-21T07:25:02.621Z,67.50
2023-04-21T07:26:02.584Z,67.71
2023-04-21T07:27:02.555Z,68.01
2023-04-21T07:28:02.521Z,67.61
2023-04-21T07:29:02.479Z,68.83
2023-04-21T07:30:02.517Z,68.29
2023-04-21T07:31:03.792Z,68.42
2023-04-21T07:32:02.402Z,68.70
2023-04-21T07:33:02.447Z,68.49
2023-04-21T07:34:02.328Z,68.90
2023-04-21T07:35:02.311Z,68.19
2023-04-21T07:36:02.277Z,68.05
2023-04-21T07:37:05.551Z,67.14
2023-04-21T07:38:02.207Z,67.55
2023-04-21T07:39:02.171Z,67.78
2023-04-21T07:40:02.152Z,67.14
2023-04-21T07:41:02.149Z,67.75
2023-04-21T07:42:02.130Z,67.03
2023-04-21T07:43:02.052Z,67.65
2023-04-21T07:44:02.016Z,67.55
2023-04-21T07:45:02.006Z,66.94
2023-04-21T07:46:01.983Z,66.43
2023-04-21T07:47:01.976Z,67.85
2023-04-21T07:48:01.945Z,66.63
2023-04-21T07:49:03.902Z,67.03
2023-04-21T07:50:01.834Z,67.00
2023-04-21T07:51:01.812Z,66.70
2023-04-21T07:52:01.770Z,66.60
2023-04-21T07:53:01.810Z,66.67
2023-04-21T07:54:01.701Z,66.97
2023-04-21T07:55:01.668Z,66.77
2023-04-21T07:56:01.633Z,65.86
2023-04-21T07:57:01.611Z,65.96
2023-04-21T07:58:01.632Z,66.06
2023-04-21T07:59:01.552Z,66.06
2023-04-21T08:00:01.516Z,67.08
2023-04-21T08:01:01.492Z,66.13
2023-04-21T08:02:01.524Z,65.63
2023-04-21T08:03:01.592Z,65.53
2023-04-21T08:04:01.545Z,65.53
2023-04-21T08:05:01.512Z,65.63
2023-04-21T08:06:01.595Z,65.42
2023-04-21T08:07:01.911Z,65.32
2023-04-21T08:08:01.323Z,65.32
2023-04-21T08:09:01.232Z,65.53
2023-04-21T08:10:01.199Z,64.89
2023-04-21T08:11:01.284Z,64.79
2023-04-21T08:12:01.135Z,64.69
2023-04-21T08:13:01.166Z,64.99
2023-04-21T08:14:01.072Z,63.27
2023-04-21T08:15:01.103Z,64.38
2023-04-21T08:16:01.054Z,64.96
2023-04-21T08:17:01.001Z,64.55
2023-04-21T08:18:01.047Z,64.52
2023-04-21T08:19:00.942Z,64.73
2023-04-21T08:20:00.904Z,62.90
2023-04-21T08:21:00.880Z,62.70
2023-04-21T08:22:00.853Z,63.01
2023-04-21T08:23:00.872Z,63.24
2023-04-21T08:24:00.841Z,63.51
2023-04-21T08:25:00.789Z,63.01
2023-04-21T08:26:00.726Z,63.01
2023-04-21T08:27:00.700Z,62.67
2023-04-21T08:28:00.649Z,62.67
2023-04-21T08:29:02.711Z,62.67
2023-04-21T08:30:00.656Z,61.87
2023-04-21T08:31:00.624Z,61.73
2023-04-21T08:32:00.589Z,62.54
2023-04-21T08:33:00.601Z,61.23
2023-04-21T08:34:02.846Z,61.80
2023-04-21T08:35:00.475Z,61.80
2023-04-21T08:36:07.437Z,62.24
2023-04-21T08:37:00.372Z,61.83
2023-04-21T08:38:00.368Z,61.51
2023-04-21T08:39:00.329Z,61.51
2023-04-21T08:40:00.313Z,61.20
2023-04-21T08:41:00.305Z,61.30
2023-04-21T08:42:00.330Z,61.07
2023-04-21T08:43:00.199Z,60.77
2023-04-21T08:44:00.168Z,60.36
2023-04-21T08:45:00.224Z,59.66
2023-04-21T08:46:00.202Z,59.25
2023-04-21T08:47:00.099Z,59.96
2023-04-21T08:48:00.328Z,58.75
2023-04-21T08:49:00.017Z,59.66
2023-04-21T08:49:59.996Z,58.72
2023-04-21T08:50:59.969Z,58.75
2023-04-21T08:51:59.929Z,59.76
2023-04-21T08:52:59.920Z,59.73
2023-04-21T08:53:59.923Z,59.73
2023-04-21T08:54:59.845Z,59.42
2023-04-21T08:56:10.770Z,58.72
2023-04-21T08:57:11.740Z,59.83
2023-04-21T08:57:59.809Z,59.00
2023-04-21T08:58:59.721Z,58.89
2023-04-21T08:59:59.768Z,58.80
2023-04-21T09:00:59.690Z,57.89
2023-04-21T09:01:59.645Z,57.38
2023-04-21T09:03:01.819Z,58.80
2023-04-21T09:03:59.654Z,57.89
2023-04-21T09:04:59.984Z,57.48
2023-04-21T09:05:59.843Z,57.68
2023-04-21T09:06:59.491Z,57.58
2023-04-21T09:07:59.467Z,57.38
2023-04-21T09:08:59.429Z,57.28
2023-04-21T09:09:59.402Z,57.38
2023-04-21T09:10:59.377Z,56.85
2023-04-21T09:11:59.426Z,56.95
2023-04-21T09:12:59.324Z,57.25
2023-04-21T09:13:59.288Z,57.05
2023-04-21T09:14:59.280Z,57.56
2023-04-21T09:15:59.254Z,56.24
2023-04-21T09:16:59.411Z,56.15
2023-04-21T09:17:59.256Z,57.25
2023-04-21T09:18:59.136Z,57.73
2023-04-21T09:19:59.146Z,57.43
2023-04-21T09:20:59.089Z,56.82
2023-04-21T09:21:59.054Z,55.71
2023-04-21T09:22:59.018Z,55.21
2023-04-21T09:23:59.046Z,55.21
2023-04-21T09:24:58.964Z,55.01
2023-04-21T09:25:58.928Z,54.00
2023-04-21T09:26:58.910Z,55.21
2023-04-21T09:27:58.881Z,56.62
2023-04-21T09:28:58.851Z,55.79
2023-04-21T09:29:58.864Z,55.89
2023-04-21T09:30:58.818Z,55.69
2023-04-21T09:31:58.763Z,57.50
2023-04-21T09:32:58.763Z,56.20
2023-04-21T09:34:00.789Z,54.96
2023-04-21T09:34:58.726Z,55.87
2023-04-21T09:35:58.641Z,53.65
2023-04-21T09:36:58.612Z,52.97
2023-04-21T09:37:58.583Z,53.58
2023-04-21T09:39:12.978Z,53.98
2023-04-21T09:40:58.560Z,54.88
2023-04-21T09:41:58.487Z,53.85
2023-04-21T09:42:58.454Z,54.46
2023-04-21T09:43:58.413Z,53.75
2023-04-21T09:45:16.544Z,53.47
2023-04-21T09:45:58.395Z,54.18
2023-04-21T09:46:58.404Z,54.18
2023-04-21T09:47:58.332Z,54.18
2023-04-21T09:48:58.271Z,55.06
2023-04-21T09:49:58.545Z,54.75
2023-04-21T09:52:17.737Z,53.92
2023-04-21T09:52:58.164Z,53.72
2023-04-21T09:53:58.122Z,54.50
2023-04-21T09:54:58.086Z,52.49
2023-04-21T09:55:58.061Z,52.09
2023-04-21T09:56:58.030Z,53.30
2023-04-21T09:57:58.062Z,52.89
2023-04-21T09:58:57.997Z,53.09
2023-04-21T09:59:57.943Z,53.30
2023-04-21T10:00:57.924Z,53.90
2023-04-21T10:01:57.976Z,51.59
2023-04-21T10:02:58.034Z,53.17
2023-04-21T10:03:58.174Z,52.57
2023-04-21T10:04:58.073Z,51.76
2023-04-21T10:05:57.893Z,53.50
2023-04-21T10:06:57.748Z,52.77
2023-04-21T10:07:57.720Z,51.68
2023-04-21T10:08:57.684Z,52.80
2023-04-21T10:09:57.713Z,51.89
2023-04-21T10:10:57.638Z,51.59
2023-04-21T10:11:57.615Z,51.59
2023-04-21T10:12:57.579Z,51.29
2023-04-21T10:13:57.547Z,51.68
2023-04-21T10:14:57.517Z,52.47
2023-04-21T10:15:57.554Z,51.46
2023-04-21T10:16:57.480Z,53.47
2023-04-21T10:17:57.493Z,53.57
2023-04-21T10:18:57.397Z,51.64
2023-04-21T10:19:57.453Z,51.94
2023-04-21T10:20:57.422Z,51.54
2023-04-21T10:21:57.315Z,51.04
2023-04-21T10:22:57.300Z,49.95
2023-04-21T10:23:57.262Z,50.86
2023-04-21T10:24:57.265Z,51.26
2023-04-21T10:25:57.250Z,52.06
2023-04-21T10:26:57.174Z,51.74
2023-04-21T10:27:57.155Z,51.54
2023-04-21T10:28:57.131Z,51.76
2023-04-21T10:29:57.339Z,53.05
2023-04-21T10:30:57.060Z,51.74
2023-04-21T10:31:57.130Z,52.04
2023-04-21T10:32:57.022Z,51.54
2023-04-21T10:33:57.045Z,51.34
2023-04-21T10:34:56.950Z,51.72
2023-04-21T10:35:56.912Z,52.92
2023-04-21T10:36:56.899Z,52.01
2023-04-21T10:37:56.863Z,53.22
2023-04-21T10:38:56.837Z,53.30
2023-04-21T10:39:56.873Z,52.42
2023-04-21T10:40:56.776Z,52.92
2023-04-21T10:41:56.746Z,51.61
2023-04-21T10:42:56.724Z,52.92
2023-04-21T10:43:56.695Z,50.71
2023-04-21T10:44:56.791Z,50.71
2023-04-21T10:45:56.639Z,50.48
2023-04-21T10:46:56.643Z,50.51
2023-04-21T10:47:56.615Z,49.80
2023-04-21T10:48:56.560Z,49.91
2023-04-21T10:49:56.577Z,49.71
2023-04-21T10:50:56.496Z,49.40
2023-04-21T10:51:56.491Z,49.60
2023-04-21T10:52:56.451Z,49.91
2023-04-21T10:53:56.417Z,49.91
2023-04-21T10:54:56.398Z,49.21
2023-04-21T10:55:56.425Z,50.29
2023-04-21T10:56:56.333Z,49.10
2023-04-21T10:57:56.301Z,50.01
2023-04-21T10:58:56.279Z,49.71
2023-04-21T10:59:56.241Z,49.80
2023-04-21T11:00:56.267Z,50.61
2023-04-21T11:01:56.296Z,50.41
2023-04-21T11:02:56.271Z,50.81
2023-04-21T11:03:56.236Z,51.34
2023-04-21T11:04:56.698Z,51.14
2023-04-21T11:05:56.076Z,50.71
2023-04-21T11:06:56.079Z,50.51
2023-04-21T11:07:56.079Z,50.59
2023-04-21T11:08:55.987Z,50.59
2023-04-21T11:09:55.962Z,50.31
2023-04-21T11:10:55.973Z,50.31
2023-04-21T11:11:55.911Z,50.71
2023-04-21T11:12:55.932Z,49.40
2023-04-21T11:13:55.860Z,50.11
2023-04-21T11:14:55.820Z,49.51
2023-04-21T11:15:55.797Z,48.83
2023-04-21T11:16:55.833Z,50.13
2023-04-21T11:17:55.861Z,50.03
2023-04-21T11:18:55.712Z,50.03
2023-04-21T11:19:55.685Z,51.04
2023-04-21T11:20:55.662Z,50.63
2023-04-21T11:21:55.676Z,51.14
2023-04-21T11:22:55.597Z,51.51
2023-04-21T11:23:55.648Z,50.71
2023-04-21T11:24:55.574Z,51.09
2023-04-21T11:25:55.513Z,50.01
2023-04-21T11:26:55.493Z,49.21
2023-04-21T11:27:55.470Z,50.01
2023-04-21T11:28:55.425Z,50.09
2023-04-21T11:29:55.462Z,49.68
2023-04-21T11:30:55.486Z,50.09
2023-04-21T11:31:55.353Z,49.98
2023-04-21T11:32:55.352Z,49.88
2023-04-21T11:33:55.291Z,50.18
2023-04-21T11:34:55.289Z,49.58
2023-04-21T11:35:55.314Z,49.46
2023-04-21T11:36:55.207Z,48.58
2023-04-21T11:37:55.183Z,48.68
2023-04-21T11:38:55.145Z,48.78
2023-04-21T11:39:55.124Z,48.38
2023-04-21T11:40:55.139Z,48.88
2023-04-21T11:41:55.082Z,47.00
2023-04-21T11:42:55.045Z,48.30
2023-04-21T11:43:55.016Z,48.40
2023-04-21T11:44:55.000Z,48.10
2023-04-21T11:45:54.969Z,47.70
2023-04-21T11:46:54.985Z,49.60
2023-04-21T11:47:54.942Z,48.50
2023-04-21T11:48:54.878Z,48.20
2023-04-21T11:49:54.860Z,47.77
2023-04-21T11:50:54.817Z,48.88
2023-04-21T11:51:54.813Z,48.48
2023-04-21T11:52:54.828Z,48.46
2023-04-21T11:53:54.736Z,48.75
2023-04-21T11:54:54.706Z,47.96
2023-04-21T11:55:54.934Z,47.93
2023-04-21T11:56:54.676Z,46.83
2023-04-21T11:57:54.638Z,46.73
2023-04-21T11:58:54.656Z,47.65
2023-04-21T11:59:54.573Z,46.62
2023-04-21T12:00:54.750Z,47.03
2023-04-21T12:01:54.515Z,46.53
2023-04-21T12:02:54.553Z,45.83
2023-04-21T12:03:54.709Z,45.83
2023-04-21T12:04:54.596Z,47.03
2023-04-21T12:05:54.435Z,47.05
2023-04-21T12:06:54.371Z,47.75
2023-04-21T12:07:54.344Z,47.75
2023-04-21T12:08:54.314Z,49.96
2023-04-21T12:09:54.385Z,48.75
2023-04-21T12:10:54.257Z,48.63
2023-04-21T12:11:54.245Z,48.46
2023-04-21T12:12:54.205Z,48.75
2023-04-21T12:13:54.178Z,49.56
2023-04-21T12:14:54.154Z,49.46
2023-04-21T12:15:54.206Z,49.46
2023-04-21T12:16:54.201Z,48.83
2023-04-21T12:17:54.129Z,48.83
2023-04-21T12:18:54.070Z,47.43
2023-04-21T12:19:54.054Z,47.33
2023-04-21T12:20:53.993Z,45.42
2023-04-21T12:21:54.010Z,46.62
2023-04-21T12:22:54.582Z,45.00
2023-04-21T12:23:53.926Z,45.60
2023-04-21T12:24:53.934Z,46.08
2023-04-21T12:25:53.845Z,44.38
2023-04-21T12:26:53.822Z,45.36
2023-04-21T12:27:53.856Z,44.76
2023-04-21T12:28:53.785Z,45.54
2023-04-21T12:29:53.745Z,44.34
2023-04-21T12:30:53.710Z,46.64
2023-04-21T12:31:53.759Z,44.24
2023-04-21T12:32:53.751Z,44.24
2023-04-21T12:33:53.759Z,44.43
2023-04-21T12:34:53.626Z,45.14
2023-04-21T12:35:53.575Z,44.16
2023-04-21T12:36:53.563Z,45.58
2023-04-21T12:37:53.536Z,45.98
2023-04-21T12:38:53.508Z,45.78
2023-04-21T12:39:53.526Z,48.08
2023-04-21T12:40:53.444Z,46.68
2023-04-21T12:41:53.423Z,47.49
2023-04-21T12:42:53.389Z,46.38
2023-04-21T12:43:53.362Z,47.00
2023-04-21T12:44:53.348Z,46.81
2023-04-21T12:45:53.427Z,48.41
2023-04-21T12:46:53.294Z,47.88
2023-04-21T12:47:53.282Z,47.61
2023-04-21T12:48:53.227Z,47.91
2023-04-21T12:49:53.229Z,48.43
2023-04-21T12:50:53.176Z,48.23
2023-04-21T12:51:53.211Z,49.04
2023-04-21T12:52:53.122Z,47.96
2023-04-21T12:53:53.097Z,48.83